createdAt,value
2019-05-03T00:02:06.420Z,85.12
2019-05-03T00:04:36.297Z,85.49
2019-05-03T00:07:05.349Z,85.82
2019-05-03T00:09:34.247Z,85.56
2019-05-03T00:12:03.105Z,86.00
2019-05-03T00:14:32.538Z,86.38
2019-05-03T00:17:02.360Z,86.31
2019-05-03T00:19:32.712Z,86.38
2019-05-03T00:22:02.138Z,86.36
2019-05-03T00:24:32.125Z,86.70
2019-05-03T00:27:01.960Z,86.63
2019-05-03T00:29:32.512Z,86.97
2019-05-03T00:32:01.961Z,87.00
2019-05-03T00:34:36.561Z,87.17
2019-05-03T00:37:08.868Z,87.37
2019-05-03T00:39:45.130Z,87.42
2019-05-03T00:42:14.063Z,87.06
2019-05-03T00:44:42.967Z,87.22
2019-05-03T00:47:12.606Z,87.09
2019-05-03T00:49:42.579Z,87.26
2019-05-03T00:52:11.769Z,87.22
2019-05-03T00:54:42.362Z,87.24
2019-05-03T00:57:12.107Z,87.68
2019-05-03T00:59:42.042Z,87.64
2019-05-03T01:02:11.837Z,87.54
2019-05-03T01:04:42.732Z,87.94
2019-05-03T01:07:11.982Z,87.35
2019-05-03T01:09:42.449Z,87.42
2019-05-03T01:12:12.625Z,87.05
2019-05-03T01:14:43.185Z,86.93
2019-05-03T01:17:12.297Z,87.14
2019-05-03T01:19:42.631Z,87.30
2019-05-03T01:22:11.950Z,87.45
2019-05-03T01:24:42.721Z,87.35
2019-05-03T01:27:12.459Z,87.75
2019-05-03T01:29:42.453Z,87.80
2019-05-03T01:32:11.584Z,88.07
2019-05-03T01:34:41.615Z,88.29
2019-05-03T01:37:11.947Z,87.99
2019-05-03T01:39:42.153Z,87.91
2019-05-03T01:42:11.957Z,87.91
2019-05-03T01:44:42.613Z,87.56
2019-05-03T01:47:16.269Z,88.05
2019-05-03T01:49:55.351Z,88.17
2019-05-03T01:52:28.364Z,88.43
2019-05-03T01:54:57.396Z,88.53
2019-05-03T01:57:26.422Z,88.31
2019-05-03T01:59:55.423Z,88.42
2019-05-03T02:03:01.704Z,88.50
2019-05-03T02:05:43.927Z,88.60
2019-05-03T02:08:14.057Z,88.81
2019-05-03T02:10:43.739Z,88.74
2019-05-03T02:13:12.719Z,88.82
2019-05-03T02:15:42.194Z,88.90
2019-05-03T02:18:14.949Z,89.01
2019-05-03T02:20:42.372Z,89.34
2019-05-03T02:23:11.919Z,89.30
2019-05-03T02:25:41.869Z,89.10
2019-05-03T02:28:12.656Z,89.27
2019-05-03T02:30:44.100Z,89.31
2019-05-03T02:33:13.449Z,89.36
2019-05-03T02:35:43.078Z,89.20
2019-05-03T02:38:13.664Z,89.49
2019-05-03T02:40:43.154Z,89.45
2019-05-03T02:43:28.565Z,89.46
2019-05-03T02:46:36.082Z,89.02
2019-05-03T02:49:20.997Z,88.97
2019-05-03T02:51:50.012Z,89.44
2019-05-03T02:54:18.974Z,89.46
2019-05-03T02:56:48.130Z,89.40
2019-05-03T02:59:17.458Z,89.34
2019-05-03T03:01:46.876Z,89.43
2019-05-03T03:04:16.084Z,89.55
2019-05-03T03:06:46.506Z,89.66
2019-05-03T03:09:16.936Z,89.79
2019-05-03T03:11:46.862Z,89.94
2019-05-03T03:14:16.974Z,90.31
2019-05-03T03:16:50.006Z,90.67
2019-05-03T03:19:18.923Z,90.76
2019-05-03T03:21:49.149Z,90.89
2019-05-03T03:24:19.991Z,91.34
2019-05-03T03:26:50.419Z,91.36
2019-05-03T03:29:25.223Z,91.69
2019-05-03T03:32:19.618Z,91.65
2019-05-03T03:35:11.643Z,92.00
2019-05-03T03:37:37.723Z,92.67
2019-05-03T03:40:07.016Z,93.03
2019-05-03T03:42:38.960Z,93.17
2019-05-03T03:45:09.009Z,93.41
2019-05-03T03:47:56.666Z,93.45
2019-05-03T03:50:27.910Z,93.94
2019-05-03T03:52:57.658Z,94.15
2019-05-03T03:55:56.421Z,94.36
2019-05-03T03:58:27.407Z,94.59
2019-05-03T04:00:56.412Z,94.89
2019-05-03T04:03:26.132Z,94.92
2019-05-03T04:06:26.673Z,95.23
2019-05-03T04:08:57.714Z,95.26
2019-05-03T04:11:27.924Z,95.25
2019-05-03T04:13:57.121Z,95.53
2019-05-03T04:16:36.533Z,95.69
2019-05-03T04:19:10.784Z,95.65
2019-05-03T04:21:45.137Z,95.64
2019-05-03T04:24:16.129Z,95.61
2019-05-03T04:26:45.343Z,95.85
2019-05-03T04:29:16.048Z,95.93
2019-05-03T04:31:45.737Z,96.06
2019-05-03T04:34:16.312Z,96.29
2019-05-03T04:36:46.174Z,96.04
2019-05-03T04:39:19.674Z,96.11
2019-05-03T04:41:45.853Z,96.34
2019-05-03T04:44:15.428Z,96.51
2019-05-03T04:46:46.492Z,96.45
2019-05-03T04:49:15.265Z,96.56
2019-05-03T04:51:46.452Z,96.74
2019-05-03T04:54:39.096Z,96.72
2019-05-03T04:57:08.070Z,96.81
2019-05-03T04:59:39.382Z,96.78
2019-05-03T05:02:15.903Z,96.98
2019-05-03T05:04:46.412Z,96.97
2019-05-03T05:07:15.789Z,97.06
2019-05-03T05:09:46.882Z,97.21
2019-05-03T05:12:16.415Z,97.44
2019-05-03T05:14:45.921Z,97.60
2019-05-03T05:17:17.646Z,97.74
2019-05-03T05:19:52.433Z,97.92
2019-05-03T05:22:24.724Z,97.99
2019-05-03T05:24:55.216Z,98.10
2019-05-03T05:27:29.756Z,98.17
2019-05-03T05:30:00.210Z,98.23
2019-05-03T05:32:29.477Z,98.36
2019-05-03T05:34:58.448Z,98.57
2019-05-03T05:37:27.744Z,98.68
2019-05-03T05:39:56.713Z,98.81
2019-05-03T05:42:25.556Z,98.92
2019-05-03T05:44:55.697Z,99.07
2019-05-03T05:47:49.385Z,99.14
2019-05-03T05:50:30.367Z,99.19
2019-05-03T05:52:59.389Z,99.24
2019-05-03T05:55:46.234Z,99.31
2019-05-03T05:58:21.973Z,99.36
2019-05-03T06:01:00.120Z,99.53
2019-05-03T06:03:29.082Z,99.53
2019-05-03T06:06:00.044Z,99.55
2019-05-03T06:08:41.150Z,99.56
2019-05-03T06:11:25.803Z,99.57
2019-05-03T06:14:19.873Z,99.54
2019-05-03T06:16:59.671Z,99.59
2019-05-03T06:19:34.535Z,99.60
2019-05-03T06:22:23.207Z,99.72
2019-05-03T06:24:57.619Z,99.85
2019-05-03T06:27:31.539Z,99.90
2019-05-03T06:30:06.119Z,99.89
2019-05-03T06:32:37.599Z,100.00
2019-05-03T06:35:06.736Z,100.00
2019-05-03T06:37:41.404Z,100.00
2019-05-03T06:40:10.776Z,100.00
2019-05-03T06:42:51.596Z,100.00
2019-05-03T06:45:11.856Z,100.00
2019-05-03T06:47:48.073Z,100.00
2019-05-03T06:50:14.507Z,100.00
2019-05-03T06:52:44.569Z,100.00
2019-05-03T06:55:14.553Z,100.00
2019-05-03T06:57:49.395Z,100.00
2019-05-03T07:00:46.921Z,100.00
2019-05-03T07:03:44.768Z,100.00
2019-05-03T07:06:39.437Z,100.00
2019-05-03T07:09:20.067Z,100.00
2019-05-03T07:11:49.139Z,100.00
2019-05-03T07:14:18.014Z,100.00
2019-05-03T07:16:46.959Z,100.00
2019-05-03T07:19:15.902Z,100.00
2019-05-03T07:21:44.883Z,100.00
2019-05-03T07:24:14.686Z,100.00
2019-05-03T07:26:44.808Z,100.00
2019-05-03T07:29:15.225Z,100.00
2019-05-03T07:31:44.730Z,100.00
2019-05-03T07:34:15.560Z,100.00
2019-05-03T07:36:44.784Z,100.00
2019-05-03T07:39:14.523Z,100.00
2019-05-03T07:41:44.668Z,100.00
2019-05-03T07:44:15.224Z,100.00
2019-05-03T07:46:45.159Z,100.00
2019-05-03T07:49:15.324Z,100.00
2019-05-03T07:51:44.876Z,100.00
2019-05-03T07:54:15.664Z,100.00
2019-05-03T07:56:50.144Z,100.00
2019-05-03T07:59:19.020Z,100.00
2019-05-03T08:01:50.616Z,100.00
2019-05-03T08:04:19.465Z,100.00
2019-05-03T08:06:48.381Z,100.00
2019-05-03T08:09:17.571Z,100.00
2019-05-03T08:11:46.430Z,100.00
2019-05-03T08:14:18.086Z,100.00
2019-05-03T08:16:46.118Z,100.00
2019-05-03T08:19:15.313Z,100.00
2019-05-03T08:21:45.286Z,100.00
2019-05-03T08:24:14.912Z,100.00
2019-05-03T08:26:45.311Z,100.00
2019-05-03T08:29:18.575Z,100.00
2019-05-03T08:32:07.382Z,100.00
2019-05-03T08:34:55.632Z,100.00
2019-05-03T08:37:28.049Z,100.00
2019-05-03T08:39:57.211Z,100.00
2019-05-03T08:42:26.586Z,100.00
2019-05-03T08:44:55.521Z,100.00
2019-05-03T08:47:24.853Z,100.00
2019-05-03T08:49:59.628Z,100.00
2019-05-03T08:52:28.522Z,100.00
2019-05-03T08:54:57.495Z,100.00
2019-05-03T08:57:26.445Z,100.00
2019-05-03T08:59:55.303Z,100.00
2019-05-03T09:02:25.801Z,100.00
2019-05-03T09:04:55.010Z,100.00
2019-05-03T09:07:25.331Z,100.00
2019-05-03T09:10:05.278Z,100.00
2019-05-03T09:12:55.547Z,100.00
2019-05-03T09:15:24.949Z,100.00
2019-05-03T09:17:55.258Z,100.00
2019-05-03T09:20:25.052Z,100.00
2019-05-03T09:22:54.958Z,99.96
2019-05-03T09:25:24.798Z,99.65
2019-05-03T09:27:55.206Z,98.88
2019-05-03T09:30:25.143Z,99.03
2019-05-03T09:32:55.660Z,98.95
2019-05-03T09:35:32.149Z,98.82
2019-05-03T09:37:55.738Z,98.98
2019-05-03T09:40:24.723Z,99.00
2019-05-03T09:42:55.101Z,98.88
2019-05-03T09:45:24.642Z,98.19
2019-05-03T09:47:55.206Z,98.12
2019-05-03T09:50:24.692Z,98.97
2019-05-03T09:52:55.445Z,98.59
2019-05-03T09:55:29.572Z,98.80
2019-05-03T09:57:58.545Z,98.51
2019-05-03T10:00:27.482Z,98.56
2019-05-03T10:02:56.343Z,96.13
2019-05-03T10:05:27.373Z,95.16
2019-05-03T10:07:56.383Z,95.29
2019-05-03T10:10:25.272Z,96.64
2019-05-03T10:12:55.033Z,95.94
2019-05-03T10:15:42.029Z,95.05
2019-05-03T10:18:18.141Z,94.45
2019-05-03T10:20:49.814Z,96.70
2019-05-03T10:23:40.861Z,94.26
2019-05-03T10:26:10.859Z,93.04
2019-05-03T10:28:43.151Z,95.03
2019-05-03T10:31:17.518Z,90.51
2019-05-03T10:34:00.365Z,85.56
2019-05-03T10:36:29.500Z,76.00
2019-05-03T10:39:05.560Z,75.02
2019-05-03T10:41:40.461Z,76.90
2019-05-03T10:44:15.097Z,75.31
2019-05-03T10:46:50.572Z,75.58
2019-05-03T10:49:24.530Z,74.90
2019-05-03T10:52:02.087Z,71.53
2019-05-03T10:54:36.531Z,73.18
2019-05-03T10:57:17.025Z,71.58
2019-05-03T10:59:48.812Z,72.50
2019-05-03T11:02:36.615Z,71.91
2019-05-03T11:05:10.333Z,74.33
2019-05-03T11:07:41.775Z,73.08
2019-05-03T11:10:19.042Z,71.93
2019-05-03T11:12:50.745Z,73.41
2019-05-03T11:15:22.740Z,73.46
2019-05-03T11:17:55.636Z,71.69
2019-05-03T11:20:38.716Z,68.52
2019-05-03T11:23:11.116Z,70.19
2019-05-03T11:25:45.269Z,70.42
2019-05-03T11:28:24.808Z,68.48
2019-05-03T11:31:02.319Z,69.15
2019-05-03T11:33:39.318Z,66.93
2019-05-03T11:36:16.911Z,68.95
2019-05-03T11:38:49.009Z,67.00
2019-05-03T11:41:30.266Z,64.72
2019-05-03T11:43:59.620Z,61.18
2019-05-03T11:46:55.411Z,59.24
2019-05-03T11:49:29.124Z,60.85
2019-05-03T11:52:06.267Z,55.68
2019-05-03T11:54:35.907Z,60.69
2019-05-03T11:57:09.739Z,58.48
2019-05-03T11:59:38.777Z,55.57
2019-05-03T12:02:24.672Z,57.50
2019-05-03T12:04:55.273Z,54.69
2019-05-03T12:07:39.920Z,57.92
2019-05-03T12:10:20.616Z,56.26
2019-05-03T12:12:48.516Z,55.34
2019-05-03T12:15:22.900Z,60.53
2019-05-03T12:17:59.406Z,54.82
2019-05-03T12:20:31.755Z,52.06
2019-05-03T12:23:09.630Z,56.06
2019-05-03T12:25:45.544Z,53.00
2019-05-03T12:28:16.361Z,56.92
2019-05-03T12:30:47.497Z,53.66
2019-05-03T12:33:26.128Z,55.70
2019-05-03T12:35:55.514Z,54.62
2019-05-03T12:38:29.490Z,51.23
2019-05-03T12:41:02.226Z,48.72
2019-05-03T12:43:37.614Z,51.43
2019-05-03T12:46:16.896Z,48.29
2019-05-03T12:48:45.655Z,46.39
2019-05-03T12:51:20.551Z,48.56
2019-05-03T12:53:55.048Z,50.33
2019-05-03T12:56:31.043Z,53.54
2019-05-03T12:59:05.922Z,50.51
2019-05-03T13:02:02.087Z,48.82
2019-05-03T13:04:33.459Z,51.47
2019-05-03T13:07:31.333Z,49.35
2019-05-03T13:10:08.833Z,50.89
2019-05-03T13:12:52.761Z,55.02
2019-05-03T13:15:21.276Z,54.50
2019-05-03T13:17:50.300Z,55.25
2019-05-03T13:20:25.455Z,54.32
2019-05-03T13:22:59.183Z,53.40
2019-05-03T13:25:29.384Z,56.86
2019-05-03T13:28:10.413Z,55.44
2019-05-03T13:30:45.301Z,56.39
2019-05-03T13:33:18.212Z,54.32
2019-05-03T13:35:55.058Z,57.88
2019-05-03T13:38:34.872Z,55.08
2019-05-03T13:41:08.566Z,53.95
2019-05-03T13:43:41.123Z,54.47
2019-05-03T13:46:15.644Z,51.86
2019-05-03T13:48:49.065Z,50.21
2019-05-03T13:51:17.051Z,51.37
2019-05-03T13:53:45.987Z,55.52
2019-05-03T13:56:16.001Z,48.65
2019-05-03T13:58:44.953Z,47.65
2019-05-03T14:01:14.711Z,51.54
2019-05-03T14:03:45.262Z,47.15
2019-05-03T14:06:14.347Z,47.90
2019-05-03T14:08:45.391Z,46.18
2019-05-03T14:11:15.567Z,45.78
2019-05-03T14:13:44.655Z,46.31
2019-05-03T14:16:14.399Z,46.05
2019-05-03T14:18:45.633Z,46.69
2019-05-03T14:21:22.067Z,42.15
2019-05-03T14:24:09.536Z,42.95
2019-05-03T14:26:39.105Z,43.09
2019-05-03T14:29:08.034Z,44.35
2019-05-03T14:31:37.022Z,43.33
2019-05-03T14:34:06.172Z,44.99
2019-05-03T14:36:35.894Z,49.32
2019-05-03T14:39:09.772Z,48.83
2019-05-03T14:41:37.893Z,46.50
2019-05-03T14:44:06.875Z,47.46
2019-05-03T14:46:36.308Z,47.72
2019-05-03T14:49:05.639Z,49.70
2019-05-03T14:51:36.851Z,47.18
2019-05-03T14:54:06.313Z,47.03
2019-05-03T14:56:42.155Z,47.20
2019-05-03T14:59:49.604Z,45.92
2019-05-03T15:02:40.033Z,47.48
2019-05-03T15:04:58.543Z,47.46
2019-05-03T15:07:27.438Z,46.65
2019-05-03T15:09:56.428Z,47.90
2019-05-03T15:12:25.428Z,49.64
2019-05-03T15:14:54.714Z,43.88
2019-05-03T15:17:24.681Z,43.87
2019-05-03T15:19:54.745Z,43.96
2019-05-03T15:22:25.313Z,43.77
2019-05-03T15:24:54.653Z,45.42
2019-05-03T15:27:25.724Z,46.54
2019-05-03T15:29:55.498Z,43.75
2019-05-03T15:32:24.635Z,45.53
2019-05-03T15:34:57.609Z,43.85
2019-05-03T15:37:29.551Z,43.43
2019-05-03T15:39:58.779Z,44.91
2019-05-03T15:42:28.516Z,48.19
2019-05-03T15:45:37.613Z,47.97
2019-05-03T15:48:26.047Z,49.21
2019-05-03T15:50:55.448Z,48.34
2019-05-03T15:53:27.497Z,50.90
2019-05-03T15:55:56.506Z,49.07
2019-05-03T15:58:25.468Z,52.31
2019-05-03T16:00:55.361Z,51.47
2019-05-03T16:03:27.852Z,52.44
2019-05-03T16:05:58.055Z,51.73
2019-05-03T16:08:30.553Z,49.49
2019-05-03T16:10:59.533Z,51.66
2019-05-03T16:13:28.385Z,53.62
2019-05-03T16:15:57.409Z,50.81
2019-05-03T16:18:26.795Z,53.49
2019-05-03T16:20:57.197Z,52.55
2019-05-03T16:23:27.469Z,55.13
2019-05-03T16:25:57.070Z,55.97
2019-05-03T16:28:32.907Z,53.03
2019-05-03T16:31:12.409Z,51.55
2019-05-03T16:33:41.455Z,52.95
2019-05-03T16:36:10.447Z,51.40
2019-05-03T16:38:40.041Z,51.93
2019-05-03T16:41:09.064Z,51.06
2019-05-03T16:43:38.097Z,51.60
2019-05-03T16:46:07.204Z,52.88
2019-05-03T16:48:36.566Z,52.72
2019-05-03T16:51:05.651Z,53.26
2019-05-03T16:53:35.028Z,52.55
2019-05-03T16:56:05.384Z,51.51
2019-05-03T16:58:41.079Z,51.44
2019-05-03T17:01:10.096Z,50.25
2019-05-03T17:03:45.714Z,53.40
2019-05-03T17:06:48.515Z,51.57
2019-05-03T17:09:36.350Z,53.32
2019-05-03T17:12:06.934Z,52.33
2019-05-03T17:14:35.792Z,55.11
2019-05-03T17:17:07.095Z,53.98
2019-05-03T17:19:35.534Z,51.99
2019-05-03T17:22:05.581Z,52.98
2019-05-03T17:24:35.338Z,54.91
2019-05-03T17:27:04.846Z,57.14
2019-05-03T17:29:35.081Z,57.59
2019-05-03T17:32:04.935Z,54.06
2019-05-03T17:34:34.760Z,57.41
2019-05-03T17:37:05.037Z,57.29
2019-05-03T17:39:51.738Z,55.68
2019-05-03T17:42:42.954Z,55.25
2019-05-03T17:45:14.662Z,57.25
2019-05-03T17:47:45.438Z,57.83
2019-05-03T17:50:14.819Z,57.38
2019-05-03T17:52:51.298Z,56.06
2019-05-03T17:55:39.237Z,56.46
2019-05-03T17:58:15.006Z,57.36
2019-05-03T18:01:20.853Z,56.84
2019-05-03T18:04:06.081Z,57.40
2019-05-03T18:06:28.995Z,58.33
2019-05-03T18:09:23.050Z,57.04
2019-05-03T18:11:57.830Z,58.63
2019-05-03T18:14:26.881Z,60.19
2019-05-03T18:16:56.507Z,57.85
2019-05-03T18:19:25.649Z,57.55
2019-05-03T18:21:55.450Z,58.02
2019-05-03T18:24:24.859Z,57.49
2019-05-03T18:26:54.008Z,57.14
2019-05-03T18:29:25.140Z,56.60
2019-05-03T18:31:56.473Z,59.63
2019-05-03T18:34:25.640Z,59.07
2019-05-03T18:36:54.666Z,61.91
2019-05-03T18:39:25.212Z,59.36
2019-05-03T18:41:54.483Z,61.45
2019-05-03T18:44:31.320Z,64.98
2019-05-03T18:47:06.190Z,62.91
2019-05-03T18:49:41.328Z,62.48
2019-05-03T20:56:16.409Z,66.31
2019-05-03T20:58:45.326Z,65.22
2019-05-03T21:01:15.286Z,67.97
2019-05-03T21:03:45.514Z,67.12
2019-05-03T21:06:17.695Z,66.72
2019-05-03T21:08:57.920Z,67.03
2019-05-03T21:11:27.014Z,68.21
2019-05-03T21:13:55.984Z,67.41
2019-05-03T21:16:49.950Z,67.47
2019-05-03T21:19:44.694Z,65.64
2019-05-03T21:22:36.237Z,66.88
2019-05-03T21:25:30.069Z,67.28
2019-05-03T21:27:59.081Z,66.37
2019-05-03T21:30:35.216Z,68.54
2019-05-03T21:33:05.462Z,67.54
2019-05-03T21:35:41.485Z,66.31
2019-05-03T21:38:06.138Z,66.67
2019-05-03T21:40:34.992Z,66.95
2019-05-03T21:43:04.992Z,65.99
2019-05-03T21:45:46.373Z,66.20
2019-05-03T21:48:19.688Z,68.46
2019-05-03T21:50:48.684Z,66.76
2019-05-03T21:53:17.648Z,66.39
2019-05-03T21:55:46.454Z,67.35
2019-05-03T21:58:16.514Z,66.47
2019-05-03T22:01:05.223Z,68.07
2019-05-03T22:03:35.455Z,68.85
2019-05-03T22:06:04.705Z,68.60
2019-05-03T22:08:35.079Z,68.65
2019-05-03T22:11:05.364Z,69.68
2019-05-03T22:13:34.949Z,68.84
2019-05-03T22:16:11.061Z,69.99
2019-05-03T22:18:40.172Z,69.66
2019-05-03T22:21:17.406Z,69.53
2019-05-03T22:24:11.115Z,69.83
2019-05-03T22:27:08.319Z,70.25
2019-05-03T22:29:37.069Z,70.27
2019-05-03T22:32:06.053Z,70.78
2019-05-03T22:34:35.045Z,72.19
2019-05-03T22:37:04.575Z,70.87
2019-05-03T22:39:33.747Z,71.52
2019-05-03T22:42:04.454Z,72.90
2019-05-03T22:44:35.470Z,73.98
2019-05-03T22:47:05.527Z,74.78
2019-05-03T22:49:37.045Z,73.63
2019-05-03T22:52:05.053Z,73.29
2019-05-03T22:54:34.614Z,73.02
2019-05-03T22:57:04.803Z,73.83
2019-05-03T22:59:34.440Z,74.37
2019-05-03T23:02:03.843Z,74.39
2019-05-03T23:04:33.087Z,73.31
2019-05-03T23:07:02.175Z,73.66
2019-05-03T23:09:31.374Z,74.10
2019-05-03T23:12:00.325Z,74.58
2019-05-03T23:14:29.241Z,73.74
2019-05-03T23:16:58.169Z,74.87
2019-05-03T23:19:27.122Z,74.10
2019-05-03T23:22:05.014Z,75.85
2019-05-03T23:24:36.296Z,75.63
2019-05-03T23:27:05.414Z,75.13
2019-05-03T23:29:34.939Z,74.19
2019-05-03T23:32:04.741Z,76.42
2019-05-03T23:34:35.163Z,76.25
2019-05-03T23:37:05.589Z,76.25
2019-05-03T23:39:34.644Z,77.74
2019-05-03T23:42:04.951Z,77.00
2019-05-03T23:44:35.189Z,77.60
2019-05-03T23:47:11.650Z,78.61
2019-05-03T23:49:40.445Z,78.35
2019-05-03T23:52:28.434Z,77.17
2019-05-03T23:55:00.827Z,78.52
2019-05-03T23:57:29.669Z,78.56
2019-05-03T23:59:58.688Z,79.19
